Wielsbeke, Belgium
Current Conditions -  °F | °C
As of 4:00 PM on Thursday 23 Oct 2014 (Local Time) from LFQQ Reporting Station
Overcast Overcast  
Wind Chill: 57°   Ceiling: 4200
Heat Index: 57°   Visibility: 6mi
Dew Point: 48°   Wind: 12mph
Humidity: 72%   Direction: 210°SSW
Pressure: 30.18"   Gusts: NA
Location:  50.9°N, 3.37°E
Report Text: LFQQ 231400Z 21010KT 9999 OVC042 14/09 Q1022 NOSIG
Loading
Personal Weather Stations






























Interactive Weather Map
Tropical Storm Tracking
New forecast layout! Learn more

10-Day Weather Forecast

Advertisements
Track Severe Weather on mobile